Map

Track Data

SID SEASON NUMBER BASIN SUBBASIN NAME ISO_TIME NATURE LAT LON WMO_WIND WMO_PRES WMO_AGENCY TRACK_TYPE DIST2LAND LANDFALL IFLAG USA_AGENCY USA_ATCF_ID USA_LAT USA_LON USA_RECORD USA_STATUS USA_WIND USA_PRES USA_SSHS USA_R34_NE USA_R34_SE USA_R34_SW USA_R34_NW USA_R50_NE USA_R50_SE USA_R50_SW USA_R50_NW USA_R64_NE USA_R64_SE USA_R64_SW USA_R64_NW USA_POCI USA_ROCI USA_RMW USA_EYE TOKYO_LAT TOKYO_LON TOKYO_GRADE TOKYO_WIND TOKYO_PRES TOKYO_R50_DIR TOKYO_R50_LONG TOKYO_R50_SHORT TOKYO_R30_DIR TOKYO_R30_LONG TOKYO_R30_SHORT TOKYO_LAND CMA_LAT CMA_LON CMA_CAT CMA_WIND CMA_PRES HKO_LAT HKO_LON HKO_CAT HKO_WIND HKO_PRES NEWDELHI_LAT NEWDELHI_LON NEWDELHI_GRADE NEWDELHI_WIND NEWDELHI_PRES NEWDELHI_CI NEWDELHI_DP NEWDELHI_POCI REUNION_LAT REUNION_LON REUNION_TYPE REUNION_WIND REUNION_PRES REUNION_TNUM REUNION_CI REUNION_RMW REUNION_R34_NE REUNION_R34_SE REUNION_R34_SW REUNION_R34_NW REUNION_R50_NE REUNION_R50_SE REUNION_R50_SW REUNION_R50_NW REUNION_R64_NE REUNION_R64_SE REUNION_R64_SW REUNION_R64_NW BOM_LAT BOM_LON BOM_TYPE BOM_WIND BOM_PRES BOM_TNUM BOM_CI BOM_RMW BOM_R34_NE BOM_R34_SE BOM_R34_SW BOM_R34_NW BOM_R50_NE BOM_R50_SE BOM_R50_SW BOM_R50_NW BOM_R64_NE BOM_R64_SE BOM_R64_SW BOM_R64_NW BOM_ROCI BOM_POCI BOM_EYE BOM_POS_METHOD BOM_PRES_METHOD NADI_LAT NADI_LON NADI_CAT NADI_WIND NADI_PRES WELLINGTON_LAT WELLINGTON_LON WELLINGTON_WIND WELLINGTON_PRES DS824_LAT DS824_LON DS824_STAGE DS824_WIND DS824_PRES TD9636_LAT TD9636_LON TD9636_STAGE TD9636_WIND TD9636_PRES TD9635_LAT TD9635_LON TD9635_WIND TD9635_PRES TD9635_ROCI NEUMANN_LAT NEUMANN_LON NEUMANN_CLASS NEUMANN_WIND NEUMANN_PRES MLC_LAT MLC_LON MLC_CLASS MLC_WIND MLC_PRES USA_GUST BOM_GUST BOM_GUST_PER REUNION_GUST REUNION_GUST_PER USA_SEAHGT USA_SEARAD_NE USA_SEARAD_SE USA_SEARAD_SW USA_SEARAD_NW STORM_SPEED STORM_DIR
1990277N16301 1990 97 NA NA KLAUS 1990-10-03 12:00:00 TS 15.6000 -59.3000 30 1008 hurdat_atl main 578 578 O_____________ hurdat_atl AL131990 15.6000 -59.3000 TD 30 1008 -1 7 335
1990277N16301 1990 97 NA NA KLAUS 1990-10-03 15:00:00 TS 15.9375 -59.4623 main 604 604 P_____________ AL131990 15.9375 -59.4623 TD 32 1007 -1 7 334
1990277N16301 1990 97 NA NA KLAUS 1990-10-03 18:00:00 TS 16.2000 -59.6000 35 1007 hurdat_atl main 634 634 O_____________ hurdat_atl AL131990 16.2000 -59.6000 TS 35 1007 0 5 330
1990277N16301 1990 97 NA NA KLAUS 1990-10-03 21:00:00 TS 16.3375 -59.7001 main 642 642 P_____________ AL131990 16.3375 -59.7001 TS 40 1006 0 3 316
1990277N16301 1990 97 NA NA KLAUS 1990-10-04 00:00:00 TS 16.4000 -59.8000 45 1005 hurdat_atl main 647 634 O_____________ hurdat_atl AL131990 16.4000 -59.8000 TS 45 1005 0 3 297
1990277N16301 1990 97 NA NA KLAUS 1990-10-04 03:00:00 TS 16.4575 -59.9425 main 634 614 P_____________ AL131990 16.4575 -59.9425 TS 47 1001 0 3 289
1990277N16301 1990 97 NA NA KLAUS 1990-10-04 06:00:00 TS 16.5000 -60.1000 50 997 hurdat_atl main 614 603 O_____________ hurdat_atl AL131990 16.5000 -60.1000 TS 50 997 0 3 286
1990277N16301 1990 97 NA NA KLAUS 1990-10-04 09:00:00 TS 16.5425 -60.2500 main 593 580 P_____________ AL131990 16.5425 -60.2500 TS 50 997 0 3 289
1990277N16301 1990 97 NA NA KLAUS 1990-10-04 12:00:00 TS 16.6000 -60.4000 50 997 hurdat_atl main 580 566 O_____________ hurdat_atl AL131990 16.6000 -60.4000 TS 50 997 0 3 298
1990277N16301 1990 97 NA CS KLAUS 1990-10-04 15:00:00 TS 16.7000 -60.5575 main 556 542 P_____________ AL131990 16.7000 -60.5575 TS 52 997 0 4 305
1990277N16301 1990 97 NA CS KLAUS 1990-10-04 18:00:00 TS 16.8000 -60.7000 55 997 hurdat_atl main 542 529 O_____________ hurdat_atl AL131990 16.8000 -60.7000 TS 55 997 0 3 303
1990277N16301 1990 97 NA CS KLAUS 1990-10-04 21:00:00 TS 16.8575 -60.8075 main 529 519 P_____________ AL131990 16.8575 -60.8075 TS 55 996 0 2 298
1990277N16301 1990 97 NA CS KLAUS 1990-10-05 00:00:00 TS 16.9000 -60.9000 55 996 hurdat_atl main 519 508 O_____________ hurdat_atl AL131990 16.9000 -60.9000 TS 55 996 0 2 294
1990277N16301 1990 97 NA CS KLAUS 1990-10-05 03:00:00 TS 16.9425 -61.0075 main 508 495 P_____________ AL131990 16.9425 -61.0075 TS 57 994 0 2 298
1990277N16301 1990 97 NA CS KLAUS 1990-10-05 06:00:00 TS 17.0000 -61.1000 60 993 hurdat_atl main 495 492 O_____________ hurdat_atl AL131990 17.0000 -61.1000 TS 60 993 0 2 318
1990277N16301 1990 97 NA CS KLAUS 1990-10-05 09:00:00 TS 17.0925 -61.1500 main 482 479 P_____________ AL131990 17.0925 -61.1500 TS 65 989 1 2 333
1990277N16301 1990 97 NA CS KLAUS 1990-10-05 12:00:00 TS 17.2000 -61.2000 70 985 hurdat_atl main 479 466 O_____________ hurdat_atl AL131990 17.2000 -61.2000 HU 70 985 1 2 325
1990277N16301 1990 97 NA CS KLAUS 1990-10-05 15:00:00 TS 17.2925 -61.2925 main 466 453 P_____________ AL131990 17.2925 -61.2925 HU 70 988 1 3 316
1990277N16301 1990 97 NA CS KLAUS 1990-10-05 18:00:00 TS 17.4000 -61.4000 70 991 hurdat_atl main 453 441 O_____________ hurdat_atl AL131990 17.4000 -61.4000 HU 70 991 1 3 321
1990277N16301 1990 97 NA CS KLAUS 1990-10-05 21:00:00 TS 17.5350 -61.5000 main 441 426 P_____________ AL131990 17.5350 -61.5000 HU 67 991 1 4 328
1990277N16301 1990 97 NA CS KLAUS 1990-10-06 00:00:00 TS 17.7000 -61.6000 65 992 hurdat_atl main 426 413 O_____________ hurdat_atl AL131990 17.7000 -61.6000 HU 65 992 1 4 334
1990277N16301 1990 97 NA CS KLAUS 1990-10-06 03:00:00 TS 17.9075 -61.6925 main 413 401 P_____________ AL131990 17.9075 -61.6925 HU 62 993 0 4 335
1990277N16301 1990 97 NA CS KLAUS 1990-10-06 06:00:00 TS 18.1000 -61.8000 60 994 hurdat_atl main 401 390 O_____________ hurdat_atl AL131990 18.1000 -61.8000 TS 60 994 0 4 321
1990277N16301 1990 97 NA CS KLAUS 1990-10-06 09:00:00 TS 18.2075 -61.9500 main 380 369 P_____________ AL131990 18.2075 -61.9500 TS 60 994 0 3 305
1990277N16301 1990 97 NA CS KLAUS 1990-10-06 12:00:00 TS 18.3000 -62.1000 60 995 hurdat_atl main 369 358 O_____________ hurdat_atl AL131990 18.3000 -62.1000 TS 60 995 0 3 317
1990277N16301 1990 97 NA CS KLAUS 1990-10-06 15:00:00 TS 18.4574 -62.1925 main 358 348 P_____________ AL131990 18.4574 -62.1925 TS 57 995 0 4 328
1990277N16301 1990 97 NA CS KLAUS 1990-10-06 18:00:00 TS 18.6000 -62.3000 55 996 hurdat_atl main 348 328 O_____________ hurdat_atl AL131990 18.6000 -62.3000 TS 55 996 0 3 307
1990277N16301 1990 97 NA CS KLAUS 1990-10-06 21:00:00 TS 18.6650 -62.4850 main 328 307 P_____________ AL131990 18.6650 -62.4850 TS 55 997 0 4 285
1990277N16301 1990 97 NA CS KLAUS 1990-10-07 00:00:00 TS 18.7000 -62.7000 55 998 hurdat_atl main 307 286 O_____________ hurdat_atl AL131990 18.7000 -62.7000 TS 55 998 0 4 283
1990277N16301 1990 97 NA CS KLAUS 1990-10-07 03:00:00 TS 18.7499 -62.8775 main 286 267 P_____________ AL131990 18.7499 -62.8775 TS 55 999 0 4 285
1990277N16301 1990 97 NA CS KLAUS 1990-10-07 06:00:00 TS 18.8000 -63.1000 55 1000 hurdat_atl main 267 236 O_____________ hurdat_atl AL131990 18.8000 -63.1000 TS 55 1000 0 5 280
1990277N16301 1990 97 NA CS KLAUS 1990-10-07 09:00:00 TS 18.8348 -63.3977 main 236 197 P_____________ AL131990 18.8348 -63.3977 TS 52 1000 0 7 279
1990277N16301 1990 97 NA CS KLAUS 1990-10-07 12:00:00 TS 18.9000 -63.8000 50 1001 hurdat_atl main 197 152 O_____________ hurdat_atl AL131990 18.9000 -63.8000 TS 50 1001 0 9 282
1990277N16301 1990 97 NA NA KLAUS 1990-10-07 15:00:00 TS 19.0200 -64.3126 main 152 115 P_____________ AL131990 19.0200 -64.3126 TS 45 1002 0 11 286
1990277N16301 1990 97 NA NA KLAUS 1990-10-07 18:00:00 TS 19.2000 -64.9000 40 1004 hurdat_atl main 115 105 O_____________ hurdat_atl AL131990 19.2000 -64.9000 TS 40 1004 0 12 290
1990277N16301 1990 97 NA NA KLAUS 1990-10-07 21:00:00 TS 19.4197 -65.4778 main 112 112 P_____________ AL131990 19.4197 -65.4778 TS 35 1004 0 12 294
1990277N16301 1990 97 NA NA KLAUS 1990-10-08 00:00:00 TS 19.7000 -66.1000 30 1005 hurdat_atl main 145 145 O_____________ hurdat_atl AL131990 19.7000 -66.1000 TD 30 1005 -1 14 297
1990277N16301 1990 97 NA NA KLAUS 1990-10-08 03:00:00 TS 20.0349 -66.7850 main 178 178 P_____________ AL131990 20.0349 -66.7850 TD 30 1005 -1 15 298
1990277N16301 1990 97 NA NA KLAUS 1990-10-08 06:00:00 TS 20.4000 -67.5000 30 1005 hurdat_atl main 212 194 O_____________ hurdat_atl AL131990 20.4000 -67.5000 TD 30 1005 -1 15 298
1990277N16301 1990 97 NA NA KLAUS 1990-10-08 09:00:00 TS 20.7424 -68.2153 main 194 192 P_____________ AL131990 20.7424 -68.2153 TD 35 1005 0 15 298
1990277N16301 1990 97 NA NA KLAUS 1990-10-08 12:00:00 TS 21.1000 -68.9000 40 1005 hurdat_atl main 203 197 O_____________ hurdat_atl AL131990 21.1000 -68.9000 TS 40 1005 0 14 302
1990277N16301 1990 97 NA NA KLAUS 1990-10-08 15:00:00 TS 21.4997 -69.5227 main 218 216 P_____________ AL131990 21.4997 -69.5227 TS 42 1004 0 14 306
1990277N16301 1990 97 NA NA KLAUS 1990-10-08 18:00:00 TS 21.9000 -70.1000 45 1004 hurdat_atl main 240 238 O_____________ hurdat_atl AL131990 21.9000 -70.1000 TS 45 1004 0 13 305
1990277N16301 1990 97 NA NA KLAUS 1990-10-08 21:00:00 TS 22.2497 -70.6580 main 262 242 P_____________ AL131990 22.2497 -70.6580 TS 45 1004 0 12 305
1990277N16301 1990 97 NA NA KLAUS 1990-10-09 00:00:00 TS 22.6000 -71.2000 45 1004 hurdat_atl main 242 229 O_____________ hurdat_atl AL131990 22.6000 -71.2000 TS 45 1004 0 12 306
1990277N16301 1990 97 NA NA KLAUS 1990-10-09 03:00:00 TS 22.9698 -71.7505 main 236 236 P_____________ AL131990 22.9698 -71.7505 TS 45 1005 0 13 308
1990277N16301 1990 97 NA NA KLAUS 1990-10-09 06:00:00 TS 23.4000 -72.3000 45 1006 hurdat_atl main 256 256 O_____________ hurdat_atl AL131990 23.4000 -72.3000 TS 45 1006 0 14 313
1990277N16301 1990 97 NA NA KLAUS 1990-10-09 09:00:00 TS 23.9229 -72.8488 main 302 302 P_____________ AL131990 23.9229 -72.8488 TS 40 1006 0 15 318
1990277N16301 1990 97 NA NA KLAUS 1990-10-09 12:00:00 TS 24.5000 -73.4000 35 1007 hurdat_atl main 369 O_____________ hurdat_atl AL131990 24.5000 -73.4000 TS 35 1007 0 15 319

About IBTrACS Database

This database is a web-friendly format of International Best Track Archive for Climate Stewardship (IBTrACS), a global best track data archive curated by NOAA dating back to 1842.

Updated: 2021-10-27